Time;durP1;ratioP1;P1;durP2;ratioP2;P2;SDS_P1;SDS_P2;PMS_P1;PMS_P2;Temp;Humidity;BMP_temperature;BMP_pressure;BME280_temperature;BME280_humidity;BME280_pressure;Samples;Min_cycle;Max_cycle;Signal;HPM_P1;HPM_P2
2023/05/05 00:00:37;;;;;;;6.67;3.40;;;12.20;99.90;;;;;;4203888;28;20197;-74
2023/05/05 00:02:40;;;;;;;4.40;2.80;;;12.20;99.90;;;;;;4206580;28;20217;-73
2023/05/05 00:04:42;;;;;;;4.80;2.97;;;12.10;99.90;;;;;;4208055;28;20240;-74
2023/05/05 00:06:43;;;;;;;4.97;2.80;;;12.10;99.90;;;;;;4210958;28;20206;-73
2023/05/05 00:08:46;;;;;;;5.77;3.30;;;12.10;99.90;;;;;;4210160;28;20302;-73
2023/05/05 00:10:49;;;;;;;5.83;3.20;;;12.10;99.90;;;;;;4211659;28;20804;-73
2023/05/05 00:12:52;;;;;;;5.60;3.40;;;12.00;99.90;;;;;;4211254;28;20252;-74
2023/05/05 00:14:54;;;;;;;6.77;2.90;;;12.00;99.90;;;;;;4216532;28;20231;-75
2023/05/05 00:16:56;;;;;;;7.10;3.07;;;12.00;99.90;;;;;;4212603;28;20227;-73
2023/05/05 00:18:59;;;;;;;6.77;3.57;;;12.00;99.90;;;;;;4207137;28;20247;-72
2023/05/05 00:21:01;;;;;;;5.23;3.67;;;11.90;99.90;;;;;;4209162;28;20284;-72
2023/05/05 00:23:03;;;;;;;6.87;3.47;;;11.90;99.90;;;;;;4209165;28;20205;-72
2023/05/05 00:25:06;;;;;;;7.53;3.67;;;11.90;99.90;;;;;;4212666;28;20212;-73
2023/05/05 00:27:08;;;;;;;6.87;3.30;;;11.90;99.90;;;;;;4207750;28;20585;-72
2023/05/05 00:29:11;;;;;;;5.70;3.47;;;11.90;99.90;;;;;;4213585;28;20304;-73
2023/05/05 00:31:15;;;;;;;8.20;3.27;;;11.80;99.90;;;;;;4209796;28;20209;-72
2023/05/05 00:33:17;;;;;;;6.87;3.60;;;11.80;99.90;;;;;;4209377;28;20320;-72
2023/05/05 00:35:19;;;;;;;8.00;3.53;;;11.80;99.90;;;;;;4210036;28;20243;-72
2023/05/05 00:37:21;;;;;;;6.77;3.90;;;11.80;99.90;;;;;;4214993;28;20606;-72
2023/05/05 00:39:23;;;;;;;8.10;3.27;;;11.70;99.90;;;;;;4210230;28;20315;-72
2023/05/05 00:41:25;;;;;;;6.50;3.40;;;11.70;99.90;;;;;;4213643;28;20219;-72
2023/05/05 00:43:27;;;;;;;8.00;3.60;;;11.70;99.90;;;;;;4213832;28;20316;-72
2023/05/05 00:45:31;;;;;;;4.87;3.23;;;11.70;99.90;;;;;;4209142;28;20216;-72
2023/05/05 00:47:33;;;;;;;6.17;3.50;;;11.60;99.90;;;;;;4209510;28;20683;-73
2023/05/05 00:49:35;;;;;;;5.87;3.50;;;11.60;99.90;;;;;;4212101;28;20319;-73
2023/05/05 00:51:37;;;;;;;5.53;3.50;;;11.60;99.90;;;;;;4214608;28;20304;-73
2023/05/05 00:53:41;;;;;;;5.97;3.60;;;11.60;99.90;;;;;;4211953;28;20271;-73
2023/05/05 00:55:43;;;;;;;6.63;3.47;;;11.50;99.90;;;;;;4212395;28;20224;-72
2023/05/05 00:57:45;;;;;;;9.30;4.03;;;11.50;99.90;;;;;;4206236;28;20291;-74
2023/05/05 00:59:49;;;;;;;5.73;3.50;;;11.50;99.90;;;;;;4210172;28;20259;-74
2023/05/05 01:01:53;;;;;;;5.13;3.40;;;11.50;99.90;;;;;;4209809;28;20204;-74
2023/05/05 01:03:55;;;;;;;6.43;3.70;;;11.50;99.90;;;;;;4210849;28;20283;-73
2023/05/05 01:06:08;;;;;;;6.83;3.37;;;11.40;99.90;;;;;;4209953;28;20319;-74
2023/05/05 01:08:29;;;;;;;4.33;3.10;;;11.40;99.90;;;;;;4209599;28;20227;-73
2023/05/05 01:10:38;;;;;;;8.37;4.03;;;11.40;99.90;;;;;;4208269;28;20252;-73
2023/05/05 01:12:48;;;;;;;6.77;3.57;;;11.40;99.90;;;;;;4206493;28;20236;-73
2023/05/05 01:15:06;;;;;;;8.07;4.23;;;11.40;99.90;;;;;;4209110;28;20303;-74
2023/05/05 01:17:17;;;;;;;7.03;3.93;;;11.30;99.90;;;;;;4208395;28;20633;-74
2023/05/05 01:19:43;;;;;;;6.63;3.50;;;11.40;99.90;;;;;;4209080;28;20211;-73
2023/05/05 01:21:49;;;;;;;6.17;3.57;;;11.30;99.90;;;;;;4211032;28;20335;-73
2023/05/05 01:24:12;;;;;;;6.97;3.80;;;11.30;99.90;;;;;;4210536;28;20905;-73
2023/05/05 01:26:45;;;;;;;6.50;3.97;;;11.30;99.90;;;;;;4207050;28;20292;-73
2023/05/05 01:29:19;;;;;;;8.33;3.93;;;11.20;99.90;;;;;;4209774;28;20257;-74
2023/05/05 01:31:35;;;;;;;9.43;4.03;;;11.20;99.90;;;;;;4208603;28;20300;-74
2023/05/05 01:33:45;;;;;;;8.80;4.10;;;11.20;99.90;;;;;;4209824;28;20243;-73
2023/05/05 01:35:52;;;;;;;5.40;3.43;;;11.10;99.90;;;;;;4207973;28;20595;-73
2023/05/05 01:38:03;;;;;;;4.43;3.20;;;11.10;99.90;;;;;;4213117;28;20298;-73
2023/05/05 01:40:08;;;;;;;6.07;3.47;;;11.10;99.90;;;;;;4208644;28;20239;-74
2023/05/05 01:42:12;;;;;;;5.83;3.70;;;11.10;99.90;;;;;;4213349;28;20252;-73
2023/05/05 01:44:17;;;;;;;5.03;3.67;;;11.00;99.90;;;;;;4212351;28;20227;-73
2023/05/05 01:46:23;;;;;;;7.27;3.40;;;11.00;99.90;;;;;;4204916;28;20209;-73
2023/05/05 01:48:28;;;;;;;5.10;3.37;;;11.00;99.90;;;;;;4209396;28;20215;-74
2023/05/05 01:50:31;;;;;;;5.90;3.83;;;11.00;99.90;;;;;;4207608;28;20839;-73
2023/05/05 01:52:35;;;;;;;6.10;3.30;;;10.90;99.90;;;;;;4207841;28;20216;-74
2023/05/05 01:54:38;;;;;;;5.07;3.33;;;10.90;99.90;;;;;;4210422;28;20271;-74
2023/05/05 01:56:42;;;;;;;4.70;3.50;;;10.90;99.90;;;;;;4203729;28;20251;-73
2023/05/05 01:58:45;;;;;;;6.10;3.80;;;10.80;99.90;;;;;;4207052;28;20865;-74
2023/05/05 02:00:49;;;;;;;8.03;3.70;;;10.80;99.90;;;;;;4205263;28;20208;-73
2023/05/05 02:02:51;;;;;;;6.20;3.67;;;10.80;99.90;;;;;;4204215;28;20200;-73
2023/05/05 02:04:56;;;;;;;5.93;3.70;;;10.80;99.90;;;;;;4209980;28;20209;-73
2023/05/05 02:07:00;;;;;;;6.83;3.97;;;10.70;99.90;;;;;;4207697;28;20307;-74
2023/05/05 02:09:03;;;;;;;8.10;4.40;;;10.70;99.90;;;;;;4209052;28;20214;-73
2023/05/05 02:11:06;;;;;;;7.27;3.90;;;10.80;99.90;;;;;;4211557;28;20264;-73
2023/05/05 02:13:11;;;;;;;7.60;4.07;;;10.70;99.90;;;;;;4210051;28;20252;-74
2023/05/05 02:15:16;;;;;;;5.33;3.80;;;10.70;99.90;;;;;;4214097;28;20218;-73
2023/05/05 02:17:21;;;;;;;6.83;3.70;;;10.70;99.90;;;;;;4209263;28;20310;-73
2023/05/05 02:19:29;;;;;;;7.87;3.70;;;10.60;99.90;;;;;;4209675;28;20295;-74
2023/05/05 02:21:33;;;;;;;6.70;4.27;;;10.60;99.90;;;;;;4209741;28;20675;-73
2023/05/05 02:23:36;;;;;;;9.80;4.27;;;10.60;99.90;;;;;;4211787;28;20327;-73
2023/05/05 02:25:41;;;;;;;7.50;3.77;;;10.60;99.90;;;;;;4205998;28;20623;-73
2023/05/05 02:27:46;;;;;;;9.03;4.47;;;10.60;99.90;;;;;;4209016;28;20220;-72
2023/05/05 02:29:50;;;;;;;7.33;4.17;;;10.60;99.90;;;;;;4208938;28;20277;-73
2023/05/05 02:31:55;;;;;;;8.63;4.67;;;10.50;99.90;;;;;;4207173;28;20756;-72
2023/05/05 02:34:00;;;;;;;8.63;4.33;;;10.50;99.90;;;;;;4207243;28;20226;-73
2023/05/05 02:36:08;;;;;;;7.23;4.60;;;10.50;99.90;;;;;;4206692;28;20232;-72
2023/05/05 02:38:16;;;;;;;10.13;4.60;;;10.50;99.90;;;;;;4208940;28;20240;-73
2023/05/05 02:40:23;;;;;;;7.57;4.63;;;10.50;99.90;;;;;;4209336;28;20212;-72
2023/05/05 02:42:28;;;;;;;7.80;4.57;;;10.50;99.90;;;;;;4211413;28;20302;-72
2023/05/05 02:44:32;;;;;;;7.43;4.10;;;10.40;99.90;;;;;;4205211;28;20232;-72
2023/05/05 02:46:37;;;;;;;7.80;4.40;;;10.50;99.90;;;;;;4204147;28;20267;-71
2023/05/05 02:48:38;;;;;;;7.50;4.30;;;10.40;99.90;;;;;;4208791;28;20220;-72
2023/05/05 02:50:40;;;;;;;7.77;4.37;;;10.40;99.90;;;;;;4206193;28;20726;-72
2023/05/05 02:52:43;;;;;;;7.50;4.00;;;10.40;99.90;;;;;;4208101;28;20214;-72
2023/05/05 02:54:46;;;;;;;7.90;3.87;;;10.40;99.90;;;;;;4206566;28;20338;-72
2023/05/05 02:56:50;;;;;;;6.87;3.57;;;10.40;99.90;;;;;;4203426;28;20849;-72
2023/05/05 02:58:56;;;;;;;6.13;3.53;;;10.40;99.90;;;;;;4206421;28;20219;-72
2023/05/05 03:01:06;;;;;;;6.07;3.60;;;10.30;99.90;;;;;;4208389;28;20220;-72
2023/05/05 03:03:15;;;;;;;6.50;4.00;;;10.30;99.90;;;;;;4208855;28;20647;-72
2023/05/05 03:05:22;;;;;;;8.03;4.17;;;10.30;99.90;;;;;;4205298;28;20217;-72
2023/05/05 03:07:27;;;;;;;7.47;4.33;;;10.30;99.90;;;;;;4208543;28;20214;-73
2023/05/05 03:09:36;;;;;;;6.23;4.00;;;10.30;99.90;;;;;;4207080;28;20207;-72
2023/05/05 03:11:44;;;;;;;5.53;3.33;;;10.30;99.90;;;;;;4205247;28;20218;-73
2023/05/05 03:13:50;;;;;;;7.73;3.83;;;10.20;99.90;;;;;;4207443;28;20231;-73
2023/05/05 03:15:54;;;;;;;9.03;3.97;;;10.20;99.90;;;;;;4208953;28;20216;-73
2023/05/05 03:17:58;;;;;;;6.87;4.30;;;10.20;99.90;;;;;;4208781;28;20246;-73
2023/05/05 03:20:00;;;;;;;6.83;3.63;;;10.20;99.90;;;;;;4208736;28;21005;-73
2023/05/05 03:22:04;;;;;;;6.10;3.87;;;10.20;99.90;;;;;;4206183;28;20323;-76
2023/05/05 03:24:15;;;;;;;9.77;4.77;;;10.20;99.90;;;;;;4209167;28;20317;-73
2023/05/05 03:26:18;;;;;;;6.83;3.60;;;10.10;99.90;;;;;;4199533;28;20261;-77
2023/05/05 03:28:21;;;;;;;5.97;3.70;;;10.10;99.90;;;;;;4209334;28;21149;-75
2023/05/05 03:30:23;;;;;;;6.37;3.67;;;10.10;99.90;;;;;;4210530;28;20670;-73
2023/05/05 03:32:26;;;;;;;5.97;3.60;;;10.00;99.90;;;;;;4205562;28;20204;-74
2023/05/05 03:34:28;;;;;;;11.23;3.83;;;10.00;99.90;;;;;;4205562;28;20234;-73
2023/05/05 03:36:30;;;;;;;7.03;3.70;;;9.90;99.90;;;;;;4203716;28;20297;-73
2023/05/05 03:38:32;;;;;;;6.77;3.83;;;10.00;99.90;;;;;;4210998;28;20234;-73
2023/05/05 03:40:34;;;;;;;6.43;3.80;;;10.00;99.90;;;;;;4208800;28;20921;-73
2023/05/05 03:42:36;;;;;;;8.07;4.10;;;9.90;99.90;;;;;;4209352;28;21098;-73
2023/05/05 03:44:39;;;;;;;6.07;3.63;;;9.90;99.90;;;;;;4208108;28;20673;-73
2023/05/05 03:46:41;;;;;;;6.47;3.93;;;9.90;99.90;;;;;;4209289;28;20310;-73
2023/05/05 03:48:43;;;;;;;8.23;3.63;;;9.90;99.90;;;;;;4205876;28;20269;-73
2023/05/05 03:50:45;;;;;;;8.60;4.10;;;9.90;99.90;;;;;;4208725;28;20307;-74
2023/05/05 03:52:47;;;;;;;6.83;4.53;;;9.90;99.90;;;;;;4208734;28;20590;-73
2023/05/05 03:54:49;;;;;;;6.93;3.70;;;9.90;99.90;;;;;;4205787;28;20227;-73
2023/05/05 03:56:51;;;;;;;6.27;4.30;;;9.90;99.90;;;;;;4206751;28;20302;-73
2023/05/05 03:58:53;;;;;;;8.57;3.83;;;9.90;99.90;;;;;;4207314;28;20664;-73
2023/05/05 04:00:56;;;;;;;11.50;4.00;;;9.80;99.90;;;;;;4208763;28;20249;-73
2023/05/05 04:02:58;;;;;;;6.67;3.63;;;9.80;99.90;;;;;;4213304;28;20205;-73
2023/05/05 04:05:00;;;;;;;8.63;4.20;;;9.80;99.90;;;;;;4205285;28;20303;-73
2023/05/05 04:07:05;;;;;;;6.53;4.10;;;9.80;99.90;;;;;;4207296;28;20294;-72
2023/05/05 04:09:07;;;;;;;8.80;4.27;;;9.80;99.90;;;;;;4209079;28;20263;-73
2023/05/05 04:11:09;;;;;;;8.07;4.03;;;9.80;99.90;;;;;;4208489;28;20301;-72
2023/05/05 04:13:11;;;;;;;6.20;3.97;;;9.80;99.90;;;;;;4206525;28;20600;-73
2023/05/05 04:15:13;;;;;;;8.53;4.13;;;9.80;99.90;;;;;;4208569;28;20199;-73
2023/05/05 04:17:16;;;;;;;9.67;4.23;;;9.80;99.90;;;;;;4205706;28;20327;-72
2023/05/05 04:19:18;;;;;;;7.43;4.30;;;9.80;99.90;;;;;;4208610;28;20644;-73
2023/05/05 04:21:20;;;;;;;7.70;4.03;;;9.80;99.90;;;;;;4214839;28;20206;-73
2023/05/05 04:23:22;;;;;;;10.37;4.33;;;9.80;99.90;;;;;;4210548;28;20752;-73
2023/05/05 04:25:24;;;;;;;7.83;4.30;;;9.80;99.90;;;;;;4206442;28;20211;-73
2023/05/05 04:27:28;;;;;;;7.97;4.33;;;9.90;99.90;;;;;;4210635;28;20840;-73
2023/05/05 04:29:30;;;;;;;8.07;4.27;;;9.80;99.90;;;;;;4213979;28;20236;-73
2023/05/05 04:31:32;;;;;;;8.90;4.60;;;9.80;99.90;;;;;;4210382;28;20292;-73
2023/05/05 04:33:35;;;;;;;9.73;4.77;;;9.80;99.90;;;;;;4208106;28;20263;-73
2023/05/05 04:35:37;;;;;;;10.77;4.63;;;9.80;99.90;;;;;;4206028;28;20234;-73
2023/05/05 04:37:39;;;;;;;9.17;4.50;;;9.80;99.90;;;;;;4211155;28;20232;-73
2023/05/05 04:39:41;;;;;;;8.87;4.40;;;9.80;99.90;;;;;;4203373;28;20660;-73
2023/05/05 04:41:43;;;;;;;6.53;4.10;;;9.70;99.90;;;;;;4208604;28;20208;-73
2023/05/05 04:43:45;;;;;;;7.83;4.13;;;9.80;99.90;;;;;;4212731;28;20354;-73
2023/05/05 04:45:52;;;;;;;7.87;4.80;;;9.80;99.90;;;;;;4202866;28;20802;-73
2023/05/05 04:47:54;;;;;;;8.53;4.53;;;9.80;99.90;;;;;;4207610;28;20733;-73
2023/05/05 04:49:57;;;;;;;9.43;4.63;;;9.80;99.90;;;;;;4206909;28;20280;-73
2023/05/05 04:51:59;;;;;;;7.97;4.67;;;9.80;99.90;;;;;;4208941;28;20214;-73
2023/05/05 04:54:01;;;;;;;9.37;4.60;;;9.80;99.90;;;;;;4209591;28;20231;-73
2023/05/05 04:56:03;;;;;;;8.17;4.43;;;9.80;99.90;;;;;;4211795;28;20301;-73
2023/05/05 04:58:05;;;;;;;9.33;4.73;;;9.80;99.90;;;;;;4206143;28;20340;-72
2023/05/05 05:00:09;;;;;;;12.13;5.23;;;9.80;99.90;;;;;;4208524;28;20759;-73
2023/05/05 05:02:11;;;;;;;10.33;5.80;;;9.70;99.90;;;;;;4212683;28;20214;-72
2023/05/05 05:04:17;;;;;;;10.30;5.67;;;9.80;99.90;;;;;;4211658;28;20330;-72
2023/05/05 05:06:20;;;;;;;9.67;5.37;;;9.80;99.90;;;;;;4208318;28;20648;-73
2023/05/05 05:08:22;;;;;;;10.50;5.27;;;9.80;99.90;;;;;;4210268;28;20210;-72
2023/05/05 05:10:24;;;;;;;7.60;4.63;;;9.80;99.90;;;;;;4207508;28;20260;-72
2023/05/05 05:12:26;;;;;;;7.50;4.60;;;9.80;99.90;;;;;;4212615;28;20295;-73
2023/05/05 05:14:28;;;;;;;6.60;4.17;;;9.80;99.90;;;;;;4210956;28;20254;-72
2023/05/05 05:16:30;;;;;;;7.83;4.00;;;9.80;99.90;;;;;;4211081;28;20210;-72
2023/05/05 05:18:32;;;;;;;8.27;4.37;;;9.80;99.90;;;;;;4210316;28;20258;-73
2023/05/05 05:20:34;;;;;;;8.13;4.37;;;9.80;99.90;;;;;;4209126;28;20224;-73
2023/05/05 05:22:38;;;;;;;12.03;5.47;;;9.80;99.90;;;;;;4211302;28;20314;-73
2023/05/05 05:24:40;;;;;;;9.73;5.43;;;9.80;99.90;;;;;;4204401;28;20240;-74
2023/05/05 05:26:42;;;;;;;11.23;5.03;;;9.90;99.90;;;;;;4206903;28;20221;-73
2023/05/05 05:28:45;;;;;;;10.97;4.63;;;9.90;99.90;;;;;;4212576;28;20211;-73
2023/05/05 05:30:48;;;;;;;10.10;5.10;;;9.90;99.90;;;;;;4211409;28;20209;-73
2023/05/05 05:32:49;;;;;;;8.77;4.70;;;9.90;99.90;;;;;;4207768;28;20307;-73
2023/05/05 05:34:51;;;;;;;9.07;4.47;;;9.90;99.90;;;;;;4203276;28;20301;-73
2023/05/05 05:36:53;;;;;;;7.63;4.77;;;10.00;99.90;;;;;;4211150;28;20680;-73
2023/05/05 05:38:56;;;;;;;9.23;4.37;;;10.00;99.90;;;;;;4208071;28;20258;-73
2023/05/05 05:40:58;;;;;;;12.77;4.43;;;10.00;99.90;;;;;;4208180;28;20774;-73
2023/05/05 05:43:01;;;;;;;8.60;4.40;;;10.00;99.90;;;;;;4203811;28;20214;-73
2023/05/05 05:45:03;;;;;;;8.57;4.63;;;10.10;99.90;;;;;;4213963;28;20220;-73
2023/05/05 05:47:05;;;;;;;7.47;4.43;;;10.10;99.90;;;;;;4208512;28;20231;-73
2023/05/05 05:49:07;;;;;;;8.30;3.93;;;10.10;99.90;;;;;;4206994;28;20307;-73
2023/05/05 05:51:09;;;;;;;6.90;4.43;;;10.10;99.90;;;;;;4206585;28;20260;-73
2023/05/05 05:53:11;;;;;;;6.57;3.97;;;10.20;99.90;;;;;;4207464;28;20240;-73
2023/05/05 05:55:14;;;;;;;7.33;3.97;;;10.20;99.90;;;;;;4210701;28;20242;-72
2023/05/05 05:57:16;;;;;;;7.30;3.93;;;10.20;99.90;;;;;;4207327;28;20265;-73
2023/05/05 05:59:18;;;;;;;7.57;3.87;;;10.30;99.90;;;;;;4207587;28;20743;-72
2023/05/05 06:01:20;;;;;;;7.43;4.33;;;10.30;99.90;;;;;;4204253;28;20299;-73
2023/05/05 06:03:22;;;;;;;8.63;3.90;;;10.30;99.90;;;;;;4204474;28;20226;-72
2023/05/05 06:05:24;;;;;;;6.50;3.70;;;10.40;99.90;;;;;;4206250;28;20751;-73
2023/05/05 06:07:26;;;;;;;7.67;3.77;;;10.40;99.90;;;;;;4210787;28;20589;-73
2023/05/05 06:09:28;;;;;;;6.90;3.93;;;10.50;99.90;;;;;;4210158;28;20668;-73
2023/05/05 06:11:31;;;;;;;10.50;3.90;;;10.50;99.90;;;;;;4209752;28;20577;-73
2023/05/05 06:13:34;;;;;;;6.60;3.90;;;10.50;99.90;;;;;;4211073;28;20240;-73
2023/05/05 06:15:35;;;;;;;6.50;3.93;;;10.60;99.90;;;;;;4205117;28;20211;-73
2023/05/05 06:17:37;;;;;;;5.10;3.43;;;10.60;99.90;;;;;;4206857;28;20301;-72
2023/05/05 06:19:39;;;;;;;4.80;3.30;;;10.70;99.90;;;;;;4210372;28;20215;-72
2023/05/05 06:21:42;;;;;;;8.57;3.00;;;10.70;99.90;;;;;;4209685;28;20207;-72
2023/05/05 06:23:44;;;;;;;7.40;3.40;;;10.80;99.90;;;;;;4213436;28;20231;-74
2023/05/05 06:25:46;;;;;;;6.97;3.53;;;10.80;99.90;;;;;;4211270;28;20300;-72
2023/05/05 06:27:49;;;;;;;6.30;3.10;;;10.80;99.90;;;;;;4207641;28;20230;-73
2023/05/05 06:29:51;;;;;;;6.03;3.03;;;10.90;99.90;;;;;;4206625;28;20312;-74
2023/05/05 06:31:53;;;;;;;4.97;3.23;;;10.90;99.90;;;;;;4208694;28;20302;-73
2023/05/05 06:33:55;;;;;;;9.73;3.80;;;11.00;99.90;;;;;;4211188;28;20246;-73
2023/05/05 06:35:57;;;;;;;8.73;3.60;;;11.00;99.90;;;;;;4209250;28;20217;-73
2023/05/05 06:37:59;;;;;;;5.70;3.47;;;11.10;99.90;;;;;;4212455;28;20584;-72
2023/05/05 06:40:01;;;;;;;7.17;3.43;;;11.10;99.90;;;;;;4206627;28;20308;-73
2023/05/05 06:42:02;;;;;;;6.03;3.40;;;11.20;99.90;;;;;;4214427;28;20243;-73
2023/05/05 06:44:06;;;;;;;7.10;3.33;;;11.20;99.90;;;;;;4211222;28;20244;-72
2023/05/05 06:46:08;;;;;;;10.27;3.73;;;11.30;99.90;;;;;;4207178;28;20231;-73
2023/05/05 06:48:10;;;;;;;6.10;3.40;;;11.30;99.90;;;;;;4208562;28;20204;-72
2023/05/05 06:50:12;;;;;;;7.90;3.70;;;11.50;99.90;;;;;;4206872;28;20356;-73
2023/05/05 06:52:14;;;;;;;6.43;3.53;;;11.50;99.90;;;;;;4209193;28;20212;-73
2023/05/05 06:54:16;;;;;;;5.47;2.97;;;11.60;99.90;;;;;;4203685;28;20260;-72
2023/05/05 06:56:18;;;;;;;5.97;3.50;;;11.70;99.90;;;;;;4203362;28;20220;-72
2023/05/05 06:58:20;;;;;;;6.27;3.30;;;11.70;99.90;;;;;;4207900;28;20256;-72
2023/05/05 07:00:24;;;;;;;5.53;3.50;;;11.80;99.90;;;;;;4204495;28;20682;-71
2023/05/05 07:02:26;;;;;;;8.27;3.40;;;11.80;99.90;;;;;;4207281;28;20444;-72
2023/05/05 07:04:28;;;;;;;5.53;2.93;;;11.90;99.90;;;;;;4205307;28;20332;-74
2023/05/05 07:06:30;;;;;;;7.53;3.50;;;12.00;99.90;;;;;;4205384;28;20205;-73
2023/05/05 07:08:32;;;;;;;6.70;3.53;;;12.10;99.90;;;;;;4208851;28;20671;-73
2023/05/05 07:10:34;;;;;;;5.90;3.20;;;12.10;99.90;;;;;;4201458;28;20271;-73
2023/05/05 07:12:36;;;;;;;6.50;3.03;;;12.20;99.90;;;;;;4206902;28;20212;-73
2023/05/05 07:14:38;;;;;;;6.00;3.10;;;12.20;99.90;;;;;;4207796;28;20324;-74
2023/05/05 07:16:41;;;;;;;7.07;3.50;;;12.30;99.90;;;;;;4208801;28;20224;-73
2023/05/05 07:18:43;;;;;;;5.63;3.00;;;12.40;99.90;;;;;;4208015;28;20225;-73
2023/05/05 07:20:45;;;;;;;7.47;3.00;;;12.50;99.90;;;;;;4203086;28;20201;-73
2023/05/05 07:22:47;;;;;;;5.23;3.17;;;12.50;99.90;;;;;;4206300;28;20216;-73
2023/05/05 07:24:49;;;;;;;5.53;3.00;;;12.60;99.90;;;;;;4203647;28;20240;-74
2023/05/05 07:26:51;;;;;;;7.00;3.00;;;12.70;99.90;;;;;;4210156;28;20217;-73
2023/05/05 07:28:54;;;;;;;6.90;3.20;;;12.80;99.90;;;;;;4211668;28;20205;-74
2023/05/05 07:30:56;;;;;;;6.80;3.10;;;12.80;99.90;;;;;;4204103;28;20213;-75
2023/05/05 07:32:59;;;;;;;4.67;2.60;;;13.00;99.90;;;;;;4208358;28;20213;-74
2023/05/05 07:35:01;;;;;;;5.40;2.87;;;13.00;99.90;;;;;;4208893;28;20224;-74
2023/05/05 07:37:03;;;;;;;4.40;2.67;;;13.10;99.90;;;;;;4202552;28;20209;-74
2023/05/05 07:39:05;;;;;;;6.23;2.77;;;13.20;99.90;;;;;;4206919;28;20313;-75
2023/05/05 07:41:10;;;;;;;5.63;2.60;;;13.30;99.90;;;;;;4207200;28;20255;-74
2023/05/05 07:43:11;;;;;;;4.53;2.47;;;13.40;99.90;;;;;;4209569;28;20215;-75
2023/05/05 07:45:13;;;;;;;4.53;2.50;;;13.50;99.90;;;;;;4210843;28;20205;-75
2023/05/05 07:47:15;;;;;;;4.50;2.47;;;13.60;99.90;;;;;;4207311;28;20668;-74
2023/05/05 07:49:18;;;;;;;5.33;2.67;;;13.70;99.90;;;;;;4205082;28;20900;-73
2023/05/05 07:51:20;;;;;;;4.50;2.40;;;13.70;99.90;;;;;;4209909;28;20307;-76
2023/05/05 07:53:22;;;;;;;5.00;2.73;;;13.80;99.90;;;;;;4210208;28;20232;-77
2023/05/05 07:55:24;;;;;;;5.70;2.77;;;13.90;99.90;;;;;;4208647;28;20260;-74
2023/05/05 07:57:27;;;;;;;6.40;2.73;;;14.00;99.90;;;;;;4209175;28;20591;-74
2023/05/05 07:59:29;;;;;;;5.50;2.17;;;14.10;99.90;;;;;;4210151;28;20247;-74
2023/05/05 08:01:31;;;;;;;5.03;2.40;;;14.10;99.90;;;;;;4204391;28;20231;-73
2023/05/05 08:03:32;;;;;;;6.13;2.53;;;14.20;99.90;;;;;;4204494;28;20240;-74
2023/05/05 08:05:36;;;;;;;5.03;2.37;;;14.30;99.90;;;;;;4206787;28;20579;-74
2023/05/05 08:07:39;;;;;;;4.63;2.30;;;14.40;99.90;;;;;;4205285;28;20219;-74
2023/05/05 08:09:41;;;;;;;5.87;2.63;;;14.50;99.90;;;;;;4207972;28;20216;-73
2023/05/05 08:11:43;;;;;;;6.87;2.30;;;14.60;99.90;;;;;;4203898;28;20228;-74
2023/05/05 08:13:46;;;;;;;5.37;2.40;;;14.60;99.90;;;;;;4206289;28;20235;-74
2023/05/05 08:15:47;;;;;;;8.57;2.37;;;14.80;99.90;;;;;;4210529;28;20216;-74
2023/05/05 08:17:51;;;;;;;5.10;3.00;;;14.80;99.90;;;;;;4213965;28;20212;-75
2023/05/05 08:19:53;;;;;;;5.87;2.83;;;14.90;99.90;;;;;;4216002;28;20244;-74
2023/05/05 08:21:56;;;;;;;6.03;2.90;;;15.00;99.90;;;;;;4215249;28;20235;-74
2023/05/05 08:23:58;;;;;;;7.17;2.50;;;15.10;99.90;;;;;;4213399;28;20236;-74
2023/05/05 08:26:00;;;;;;;3.73;2.53;;;15.20;99.90;;;;;;4210949;28;20266;-73
2023/05/05 08:28:02;;;;;;;4.53;2.40;;;15.30;99.90;;;;;;4212285;28;20224;-75
2023/05/05 08:30:05;;;;;;;5.10;2.20;;;15.40;99.90;;;;;;4208827;28;20206;-73
2023/05/05 08:32:07;;;;;;;3.57;2.33;;;15.50;99.90;;;;;;4214701;28;20219;-73
2023/05/05 08:34:09;;;;;;;6.03;2.40;;;15.60;99.90;;;;;;4211324;28;20234;-73
2023/05/05 08:36:12;;;;;;;4.97;2.40;;;15.70;99.90;;;;;;4210599;28;20220;-73
2023/05/05 08:38:15;;;;;;;4.67;2.47;;;15.80;99.90;;;;;;4206999;28;20663;-74
2023/05/05 08:40:19;;;;;;;5.47;2.40;;;15.90;99.90;;;;;;4212995;28;20352;-75
2023/05/05 08:42:21;;;;;;;6.23;2.63;;;16.00;99.90;;;;;;4209942;28;20216;-75
2023/05/05 08:44:25;;;;;;;4.60;2.47;;;16.20;99.90;;;;;;4210346;28;20228;-74
2023/05/05 08:46:29;;;;;;;5.33;2.63;;;16.40;99.90;;;;;;4206166;28;20201;-75
2023/05/05 08:48:33;;;;;;;5.33;2.67;;;16.50;99.90;;;;;;4215585;28;20220;-75
2023/05/05 08:50:39;;;;;;;8.07;2.80;;;16.70;99.90;;;;;;4217518;28;20333;-75
2023/05/05 08:52:43;;;;;;;5.17;2.33;;;16.80;99.90;;;;;;4209014;28;20253;-74
2023/05/05 08:54:52;;;;;;;4.17;2.10;;;16.90;99.90;;;;;;4211019;28;20239;-75
2023/05/05 08:56:57;;;;;;;3.77;1.90;;;16.90;99.90;;;;;;4212090;28;20763;-74
2023/05/05 08:59:00;;;;;;;2.93;2.17;;;17.00;99.90;;;;;;4210971;28;20310;-74
2023/05/05 09:01:02;;;;;;;7.33;2.43;;;17.00;99.90;;;;;;4213492;28;20213;-75
2023/05/05 09:03:05;;;;;;;4.03;2.03;;;17.10;99.90;;;;;;4206171;28;20665;-74
2023/05/05 09:05:08;;;;;;;3.43;2.30;;;17.20;99.90;;;;;;4210107;28;20205;-74
2023/05/05 09:07:10;;;;;;;6.03;2.30;;;17.30;99.90;;;;;;4211609;28;20218;-74
2023/05/05 09:09:13;;;;;;;3.13;2.07;;;17.40;99.90;;;;;;4211758;28;20291;-74
2023/05/05 09:11:16;;;;;;;3.17;2.10;;;17.60;99.90;;;;;;4210115;28;20213;-73
2023/05/05 09:13:18;;;;;;;3.13;2.00;;;17.70;99.90;;;;;;4205675;28;20234;-74
2023/05/05 09:15:20;;;;;;;4.83;2.33;;;17.90;99.90;;;;;;4207710;28;20320;-74
2023/05/05 09:17:23;;;;;;;4.10;2.10;;;18.00;99.90;;;;;;4212717;28;20243;-75
2023/05/05 09:19:25;;;;;;;3.20;2.13;;;18.10;99.90;;;;;;4210232;28;20630;-77
2023/05/05 09:21:28;;;;;;;3.60;2.20;;;18.20;99.90;;;;;;4210639;28;20578;-73
2023/05/05 09:23:30;;;;;;;4.23;2.20;;;18.30;99.30;;;;;;4208980;28;20252;-75
2023/05/05 09:25:32;;;;;;;3.90;2.17;;;18.40;99.90;;;;;;4206378;28;20295;-74
2023/05/05 09:27:40;;;;;;;8.23;2.30;;;18.50;99.90;;;;;;4211741;28;20300;-74
2023/05/05 09:29:49;;;;;;;5.50;2.43;;;18.60;97.40;;;;;;4211675;28;20714;-74
2023/05/05 09:32:08;;;;;;;4.87;2.40;;;18.70;90.90;;;;;;4210879;28;20530;-74
2023/05/05 09:34:16;;;;;;;5.47;2.17;;;18.80;88.60;;;;;;4207114;28;20328;-74
2023/05/05 09:36:18;;;;;;;3.83;2.20;;;19.00;77.00;;;;;;4206582;28;20208;-75
2023/05/05 09:38:22;;;;;;;3.10;2.10;;;19.10;64.80;;;;;;4214522;28;20211;-77
2023/05/05 09:40:24;;;;;;;3.77;2.20;;;19.30;65.70;;;;;;4218707;28;20241;-76
2023/05/05 09:42:26;;;;;;;4.33;2.43;;;19.40;65.30;;;;;;4213222;28;20280;-75
2023/05/05 09:44:36;;;;;;;5.43;2.20;;;19.60;58.20;;;;;;4207433;28;21034;-75
2023/05/05 09:46:49;;;;;;;3.93;1.87;;;19.80;55.90;;;;;;4209622;28;20304;-74
2023/05/05 09:48:51;;;;;;;3.63;2.00;;;19.90;57.70;;;;;;4210766;28;20201;-75
2023/05/05 09:50:53;;;;;;;2.43;1.90;;;20.10;53.40;;;;;;4205278;28;20292;-75
2023/05/05 09:52:56;;;;;;;3.40;1.93;;;20.20;52.20;;;;;;4209621;28;20204;-77
2023/05/05 09:54:58;;;;;;;4.43;2.20;;;20.30;49.20;;;;;;4210732;28;20214;-77
2023/05/05 09:57:00;;;;;;;8.60;2.33;;;20.50;48.10;;;;;;4209676;28;20733;-74
2023/05/05 09:59:12;;;;;;;4.60;2.00;;;20.60;46.20;;;;;;4209961;28;20217;-75
2023/05/05 10:01:23;;;;;;;3.20;2.00;;;20.80;45.20;;;;;;4208552;28;20667;-75
2023/05/05 10:03:25;;;;;;;3.87;2.00;;;20.90;44.90;;;;;;4207317;28;20223;-74
2023/05/05 10:05:27;;;;;;;4.03;1.87;;;21.00;44.20;;;;;;4204903;28;20305;-74
2023/05/05 10:07:29;;;;;;;2.83;1.90;;;21.10;43.00;;;;;;4209092;28;21046;-75
2023/05/05 10:09:31;;;;;;;3.90;2.30;;;21.30;43.10;;;;;;4210028;28;20688;-75
2023/05/05 10:11:34;;;;;;;5.03;1.87;;;21.40;42.40;;;;;;4205437;28;20213;-75
2023/05/05 10:13:40;;;;;;;4.43;1.97;;;21.50;39.70;;;;;;4206583;28;20256;-75
2023/05/05 10:15:44;;;;;;;2.83;1.93;;;21.60;38.70;;;;;;4206215;28;20217;-74
2023/05/05 10:17:49;;;;;;;3.97;1.90;;;21.80;38.50;;;;;;4203605;28;20243;-73
2023/05/05 10:19:52;;;;;;;3.07;2.00;;;22.00;38.30;;;;;;4212841;28;20217;-73
2023/05/05 10:22:02;;;;;;;3.63;1.80;;;22.10;37.40;;;;;;4207868;28;20733;-74
2023/05/05 10:24:09;;;;;;;2.07;1.70;;;22.30;36.80;;;;;;4206222;28;20224;-71
2023/05/05 10:26:14;;;;;;;3.27;1.60;;;22.40;35.60;;;;;;4205392;28;20620;-72
2023/05/05 10:28:22;;;;;;;2.70;1.70;;;22.60;35.40;;;;;;4205365;28;20240;-72
2023/05/05 10:30:29;;;;;;;4.23;1.70;;;22.70;34.30;;;;;;4204651;28;20309;-71
2023/05/05 10:32:38;;;;;;;2.20;1.60;;;22.80;34.00;;;;;;4210480;28;20234;-71
2023/05/05 10:34:53;;;;;;;2.63;1.60;;;22.90;34.20;;;;;;4209498;28;20324;-72
2023/05/05 10:36:59;;;;;;;2.53;1.83;;;23.00;34.20;;;;;;4203774;28;20210;-72
2023/05/05 10:39:01;;;;;;;3.60;1.80;;;23.20;33.50;;;;;;4208052;28;20244;-72
2023/05/05 10:41:03;;;;;;;4.57;2.00;;;23.30;32.90;;;;;;4211812;28;20241;-73
2023/05/05 10:43:06;;;;;;;3.90;1.70;;;23.40;33.40;;;;;;4208622;28;20300;-72
2023/05/05 10:45:08;;;;;;;2.60;1.90;;;23.60;33.60;;;;;;4206382;28;20240;-72